Time;durP1;ratioP1;P1;durP2;ratioP2;P2;SDS_P1;SDS_P2;PMS_P1;PMS_P2;Temp;Humidity;BMP_temperature;BMP_pressure;BME280_temperature;BME280_humidity;BME280_pressure;Samples;Min_cycle;Max_cycle;Signal;HPM_P1;HPM_P2
2022/09/14 00:01:07;;;;;;;0.40;0.40;;;;;;;17.92;70.60;99282.47;5090292;28;20203;-67
2022/09/14 00:03:34;;;;;;;0.40;0.40;;;;;;;17.84;70.30;99276.00;5090080;28;20214;-67
2022/09/14 00:06:06;;;;;;;0.40;0.40;;;;;;;17.67;70.48;99267.63;5090553;28;20248;-66
2022/09/14 00:08:33;;;;;;;0.40;0.40;;;;;;;17.58;70.91;99274.16;5087335;28;20195;-67
2022/09/14 00:11:04;;;;;;;0.50;0.50;;;;;;;17.49;71.64;99271.28;5090879;28;20203;-67
2022/09/14 00:13:31;;;;;;;0.60;0.60;;;;;;;17.40;71.45;99274.41;5086740;28;20310;-67
2022/09/14 00:16:03;;;;;;;0.50;0.50;;;;;;;17.36;72.03;99278.09;5090378;28;20272;-66
2022/09/14 00:18:30;;;;;;;0.40;0.40;;;;;;;17.34;71.96;99286.00;5090479;28;20297;-67
2022/09/14 00:21:00;;;;;;;0.30;0.30;;;;;;;17.36;71.66;99278.94;5090991;28;20226;-67
2022/09/14 00:23:29;;;;;;;0.40;0.40;;;;;;;17.39;71.29;99294.31;5090576;28;20215;-67
2022/09/14 00:25:55;;;;;;;0.40;0.40;;;;;;;17.45;71.39;99291.34;5090465;28;20571;-67
2022/09/14 00:28:22;;;;;;;0.47;0.47;;;;;;;17.46;72.00;99285.25;5089906;28;20207;-67
2022/09/14 00:30:49;;;;;;;0.60;0.60;;;;;;;17.51;71.53;99293.56;5086298;28;20675;-67
2022/09/14 00:33:16;;;;;;;0.40;0.40;;;;;;;17.54;71.43;99283.03;5089717;28;20203;-67
2022/09/14 00:35:42;;;;;;;0.40;0.40;;;;;;;17.53;71.36;99281.38;5090769;28;20584;-67
2022/09/14 00:38:09;;;;;;;0.43;0.43;;;;;;;17.49;71.62;99277.28;5090160;28;20203;-66
2022/09/14 00:40:38;;;;;;;0.40;0.40;;;;;;;17.50;71.35;99281.56;5090398;28;20643;-67
2022/09/14 00:43:13;;;;;;;0.43;0.43;;;;;;;17.41;72.48;99278.69;5090447;28;20663;-67
2022/09/14 00:45:40;;;;;;;0.47;0.47;;;;;;;17.44;72.37;99287.13;5090048;28;20289;-67
2022/09/14 00:48:07;;;;;;;0.47;0.47;;;;;;;17.36;72.43;99276.34;5090082;28;20207;-67
2022/09/14 00:50:34;;;;;;;0.50;0.50;;;;;;;17.27;72.70;99264.78;5094123;28;20195;-67
2022/09/14 00:53:01;;;;;;;0.40;0.40;;;;;;;17.18;72.82;99275.72;5094332;28;20663;-67
2022/09/14 00:55:28;;;;;;;0.30;0.30;;;;;;;17.12;72.95;99290.78;5093330;28;20219;-67
2022/09/14 00:57:57;;;;;;;0.57;0.57;;;;;;;17.02;73.19;99294.81;5094307;28;20272;-67
2022/09/14 01:00:27;;;;;;;0.50;0.50;;;;;;;16.98;73.47;99293.31;5093954;28;20204;-66
2022/09/14 01:02:53;;;;;;;0.40;0.40;;;;;;;16.90;73.89;99296.34;5094103;28;20199;-67
2022/09/14 01:05:27;;;;;;;0.40;0.40;;;;;;;16.78;74.62;99291.88;5093664;28;20219;-67
2022/09/14 01:08:38;;;;;;;0.60;0.60;;;;;;;16.60;74.34;99288.59;5093585;28;20206;-67
2022/09/14 01:11:17;;;;;;;0.40;0.40;;;;;;;16.50;74.73;99286.56;5009898;28;20256;-67
2022/09/14 01:13:55;;;;;;;0.40;0.40;;;;;;;16.44;75.41;99287.75;5088046;28;20276;-67
2022/09/14 01:16:30;;;;;;;0.50;0.50;;;;;;;16.44;75.35;99279.97;5093465;28;20589;-67
2022/09/14 01:19:00;;;;;;;0.50;0.50;;;;;;;16.35;75.45;99264.94;5093795;28;20252;-67
2022/09/14 01:21:31;;;;;;;0.67;0.67;;;;;;;16.40;75.72;99288.00;5093592;28;20196;-67
2022/09/14 01:24:04;;;;;;;0.50;0.50;;;;;;;16.41;75.69;99276.72;5091849;28;20221;-67
2022/09/14 01:26:57;;;;;;;0.50;0.50;;;;;;;16.39;76.02;99276.81;5092974;28;20210;-67
2022/09/14 01:29:31;;;;;;;0.60;0.60;;;;;;;16.24;76.59;99259.56;5091819;28;20205;-67
2022/09/14 01:32:02;;;;;;;0.40;0.40;;;;;;;16.23;76.46;99271.66;5093317;28;20202;-67
2022/09/14 01:34:34;;;;;;;0.50;0.50;;;;;;;16.23;76.45;99279.41;5093700;28;20194;-67
2022/09/14 01:37:11;;;;;;;0.60;0.60;;;;;;;16.18;76.78;99278.84;5093510;28;20571;-67
2022/09/14 01:39:42;;;;;;;0.40;0.40;;;;;;;16.20;76.78;99278.75;5092937;28;20574;-67
2022/09/14 01:42:12;;;;;;;0.40;0.40;;;;;;;16.24;76.70;99282.84;5093355;28;20234;-67
2022/09/14 01:44:44;;;;;;;0.40;0.40;;;;;;;16.25;76.66;99281.94;5093513;28;20931;-67
2022/09/14 01:47:16;;;;;;;0.47;0.47;;;;;;;16.26;76.71;99289.59;5092595;28;20206;-66
2022/09/14 01:49:47;;;;;;;0.60;0.60;;;;;;;16.27;76.76;99296.44;5093384;28;20260;-67
2022/09/14 01:52:23;;;;;;;0.40;0.40;;;;;;;16.34;76.39;99285.75;5093031;28;20199;-67
2022/09/14 01:54:54;;;;;;;0.40;0.40;;;;;;;16.39;76.29;99283.72;5093228;28;20578;-66
2022/09/14 01:57:26;;;;;;;0.50;0.50;;;;;;;16.43;76.17;99287.81;5093046;28;20253;-67
2022/09/14 01:59:59;;;;;;;0.50;0.50;;;;;;;16.47;75.17;99292.75;5092172;28;20206;-66
2022/09/14 02:02:31;;;;;;;0.30;0.30;;;;;;;16.46;74.79;99280.72;5092625;28;20670;-67
2022/09/14 02:05:05;;;;;;;0.60;0.60;;;;;;;16.49;74.76;99288.31;5092801;28;20302;-67
2022/09/14 02:07:33;;;;;;;0.30;0.30;;;;;;;16.52;75.20;99289.88;5090975;28;20207;-67
2022/09/14 02:10:00;;;;;;;0.47;0.47;;;;;;;16.52;74.94;99300.25;5090191;28;20199;-67
2022/09/14 02:12:26;;;;;;;0.40;0.40;;;;;;;16.47;74.64;99282.41;5092337;28;20280;-67
2022/09/14 02:14:55;;;;;;;0.50;0.50;;;;;;;16.58;74.39;99290.41;5093241;28;20253;-67
2022/09/14 02:17:22;;;;;;;0.50;0.50;;;;;;;16.47;74.84;99291.91;5092562;28;20260;-67
2022/09/14 02:19:54;;;;;;;0.50;0.50;;;;;;;16.28;75.44;99276.59;5093291;28;20663;-67
2022/09/14 02:22:20;;;;;;;0.40;0.40;;;;;;;16.30;75.70;99305.78;5092459;28;20844;-67
2022/09/14 02:24:48;;;;;;;0.50;0.50;;;;;;;16.11;76.59;99287.00;5091818;28;20211;-67
2022/09/14 02:27:14;;;;;;;0.50;0.50;;;;;;;16.10;76.63;99299.09;5090841;28;20206;-67
2022/09/14 02:29:41;;;;;;;0.43;0.43;;;;;;;15.97;77.43;99292.91;5092611;28;20656;-67
2022/09/14 02:32:23;;;;;;;0.47;0.47;;;;;;;15.85;78.30;99291.00;5091905;28;20206;-67
2022/09/14 02:34:58;;;;;;;0.40;0.40;;;;;;;15.84;78.67;99296.22;5092610;28;20228;-67
2022/09/14 02:37:32;;;;;;;0.57;0.57;;;;;;;15.84;78.65;99296.22;5092175;28;20199;-67
2022/09/14 02:40:10;;;;;;;0.47;0.47;;;;;;;15.80;79.28;99297.34;5092440;28;20199;-67
2022/09/14 02:42:43;;;;;;;0.40;0.40;;;;;;;15.78;79.38;99299.97;5092641;28;20195;-67
2022/09/14 02:45:21;;;;;;;0.40;0.40;;;;;;;15.77;79.87;99304.31;5091881;28;20218;-67
2022/09/14 02:47:56;;;;;;;0.40;0.40;;;;;;;15.74;79.97;99295.88;5092178;28;20200;-67
2022/09/14 02:50:33;;;;;;;0.50;0.50;;;;;;;15.69;80.03;99303.06;5092323;28;20208;-66
2022/09/14 02:53:07;;;;;;;0.57;0.57;;;;;;;15.71;80.27;99296.88;5090693;28;20203;-67
2022/09/14 02:55:39;;;;;;;0.47;0.47;;;;;;;15.70;80.08;99300.38;5090710;28;20201;-66
2022/09/14 02:58:07;;;;;;;0.50;0.50;;;;;;;15.72;80.07;99303.75;5091781;28;20583;-67
2022/09/14 03:00:37;;;;;;;0.50;0.50;;;;;;;15.76;79.28;99299.25;5091799;28;20650;-67
2022/09/14 03:03:06;;;;;;;0.50;0.50;;;;;;;15.67;79.00;99295.38;5091827;28;20214;-67
2022/09/14 03:05:34;;;;;;;0.50;0.50;;;;;;;15.68;79.20;99291.88;5091035;28;20215;-67
2022/09/14 03:08:01;;;;;;;0.50;0.50;;;;;;;15.73;79.13;99297.63;5088543;28;20257;-67
2022/09/14 03:10:28;;;;;;;0.50;0.50;;;;;;;15.75;78.99;99292.41;5091397;28;20210;-66
2022/09/14 03:12:55;;;;;;;0.50;0.50;;;;;;;15.61;79.09;99275.03;5091392;28;20277;-67
2022/09/14 03:15:22;;;;;;;0.50;0.50;;;;;;;15.73;78.78;99295.03;5091185;28;20236;-67
2022/09/14 03:17:51;;;;;;;0.53;0.53;;;;;;;15.77;79.13;99302.66;5090740;28;20203;-67
2022/09/14 03:20:21;;;;;;;0.50;0.50;;;;;;;15.75;78.84;99302.72;5090856;28;20196;-67
2022/09/14 03:22:48;;;;;;;0.40;0.40;;;;;;;15.67;79.17;99279.06;5091465;28;20264;-67
2022/09/14 03:25:17;;;;;;;0.47;0.47;;;;;;;15.72;79.72;99293.41;5090897;28;20222;-67
2022/09/14 03:27:48;;;;;;;0.50;0.50;;;;;;;15.75;79.39;99295.81;5091525;28;20302;-66
2022/09/14 03:30:15;;;;;;;0.43;0.43;;;;;;;15.74;79.32;99301.06;5089881;28;20248;-67
2022/09/14 03:32:42;;;;;;;0.50;0.50;;;;;;;15.73;79.40;99300.22;5091808;28;20571;-67
2022/09/14 03:35:09;;;;;;;0.47;0.47;;;;;;;15.68;79.47;99307.38;5091041;28;20198;-67
2022/09/14 03:37:40;;;;;;;0.50;0.50;;;;;;;15.66;79.86;99306.66;5091320;28;20717;-67
2022/09/14 03:40:08;;;;;;;0.50;0.50;;;;;;;15.66;80.22;99314.41;5091342;28;20199;-66
2022/09/14 03:42:35;;;;;;;0.67;0.67;;;;;;;15.60;80.38;99304.38;5090934;28;20624;-67
2022/09/14 03:45:02;;;;;;;0.60;0.60;;;;;;;15.59;80.44;99307.88;5089919;28;20299;-66
2022/09/14 03:47:30;;;;;;;0.50;0.50;;;;;;;15.43;80.17;99281.13;5090699;28;20625;-67
2022/09/14 03:49:56;;;;;;;0.43;0.43;;;;;;;15.57;80.53;99309.69;5090127;28;20198;-66
2022/09/14 03:52:23;;;;;;;0.50;0.50;;;;;;;15.54;80.43;99309.84;5091122;28;20195;-67
2022/09/14 03:54:51;;;;;;;0.57;0.57;;;;;;;15.55;80.31;99311.53;5090820;28;20200;-66
2022/09/14 03:57:18;;;;;;;0.50;0.50;;;;;;;15.51;80.54;99310.00;5090249;28;20201;-67
2022/09/14 03:59:45;;;;;;;0.60;0.60;;;;;;;15.38;81.11;99316.69;5091289;28;20587;-67
2022/09/14 04:02:12;;;;;;;0.40;0.40;;;;;;;15.15;81.59;99291.22;5090353;28;20195;-66
2022/09/14 04:04:39;;;;;;;0.40;0.40;;;;;;;15.27;81.71;99321.56;5090290;28;20218;-67
2022/09/14 04:07:06;;;;;;;0.40;0.40;;;;;;;15.14;81.87;99310.19;5090086;28;20256;-67
2022/09/14 04:09:33;;;;;;;0.40;0.40;;;;;;;15.09;82.16;99312.16;5090665;28;20228;-67
2022/09/14 04:12:02;;;;;;;0.40;0.40;;;;;;;15.08;82.41;99313.91;5090113;28;20309;-66
2022/09/14 04:14:28;;;;;;;0.50;0.50;;;;;;;15.11;82.70;99315.50;5090067;28;20210;-67
2022/09/14 04:16:55;;;;;;;0.43;0.43;;;;;;;15.15;82.84;99317.03;5090097;28;20621;-67
2022/09/14 04:19:22;;;;;;;0.40;0.40;;;;;;;15.09;83.48;99306.97;5088571;28;20225;-67
2022/09/14 04:21:49;;;;;;;0.40;0.40;;;;;;;15.13;83.33;99318.84;5090056;28;20637;-67
2022/09/14 04:24:16;;;;;;;0.50;0.50;;;;;;;15.11;83.60;99316.34;5089186;28;20197;-67
2022/09/14 04:26:43;;;;;;;0.50;0.50;;;;;;;15.08;84.14;99315.66;5090685;28;20706;-67
2022/09/14 04:29:13;;;;;;;0.47;0.47;;;;;;;15.09;83.98;99317.31;5088912;28;20203;-66
2022/09/14 04:31:40;;;;;;;0.50;0.50;;;;;;;15.08;84.09;99318.25;5086774;28;20202;-66
2022/09/14 04:34:07;;;;;;;0.50;0.50;;;;;;;15.11;84.06;99318.09;5084292;28;20567;-67
2022/09/14 04:36:34;;;;;;;0.50;0.50;;;;;;;15.09;84.25;99323.31;5078688;28;20190;-67
2022/09/14 04:39:02;;;;;;;0.50;0.50;;;;;;;15.09;84.64;99305.25;5084163;28;20340;-67
2022/09/14 04:41:30;;;;;;;0.40;0.40;;;;;;;15.08;85.01;99295.00;5089259;28;20253;-66
2022/09/14 04:43:58;;;;;;;0.40;0.40;;;;;;;15.30;84.72;99310.25;5089894;28;20252;-67
2022/09/14 04:46:28;;;;;;;0.40;0.40;;;;;;;15.39;84.03;99305.44;5089943;28;20216;-66
2022/09/14 04:48:55;;;;;;;0.30;0.30;;;;;;;15.55;83.74;99311.53;5090057;28;20195;-67
2022/09/14 04:51:23;;;;;;;0.47;0.47;;;;;;;15.68;83.37;99312.56;5090026;28;20824;-67
2022/09/14 04:53:52;;;;;;;0.40;0.40;;;;;;;15.84;83.27;99311.75;5089715;28;20206;-67
2022/09/14 04:56:21;;;;;;;0.50;0.50;;;;;;;15.95;82.32;99315.44;5090054;28;20253;-66
2022/09/14 04:58:49;;;;;;;0.40;0.40;;;;;;;16.10;81.31;99314.63;5089333;28;20583;-66
2022/09/14 05:01:18;;;;;;;0.47;0.47;;;;;;;16.25;80.44;99320.72;5089909;28;20214;-67
2022/09/14 05:03:46;;;;;;;0.60;0.60;;;;;;;16.39;79.85;99318.19;5089841;28;20191;-67
2022/09/14 05:06:16;;;;;;;0.40;0.40;;;;;;;16.51;80.20;99317.50;5089695;28;20215;-67
2022/09/14 05:08:44;;;;;;;0.50;0.50;;;;;;;16.70;79.34;99325.13;5088754;28;20195;-67
2022/09/14 05:11:14;;;;;;;0.40;0.40;;;;;;;16.78;78.56;99297.88;5089832;28;20199;-67
2022/09/14 05:13:41;;;;;;;0.40;0.40;;;;;;;17.10;77.57;99331.44;5089677;28;20226;-67
2022/09/14 05:16:09;;;;;;;0.40;0.40;;;;;;;17.33;77.95;99331.78;5090138;28;20195;-67
2022/09/14 05:18:36;;;;;;;0.50;0.50;;;;;;;17.61;77.46;99331.00;5088585;28;20227;-67
2022/09/14 05:21:07;;;;;;;0.30;0.30;;;;;;;17.88;77.32;99327.69;5089421;28;20207;-67
2022/09/14 05:23:34;;;;;;;0.40;0.40;;;;;;;18.14;73.72;99329.50;5088174;28;20199;-67
2022/09/14 05:26:01;;;;;;;0.30;0.30;;;;;;;18.32;73.19;99330.94;5088906;28;20228;-67
2022/09/14 05:28:28;;;;;;;0.30;0.30;;;;;;;18.51;72.13;99323.72;5090207;28;20196;-67
2022/09/14 05:30:55;;;;;;;0.50;0.50;;;;;;;18.69;71.57;99317.34;5089132;28;20568;-67
2022/09/14 05:33:22;;;;;;;0.53;0.53;;;;;;;18.92;71.43;99323.63;5090202;28;20683;-67
2022/09/14 05:35:51;;;;;;;0.40;0.40;;;;;;;19.16;69.57;99331.59;5091987;28;20201;-67
2022/09/14 05:38:19;;;;;;;0.57;0.57;;;;;;;19.34;67.65;99320.78;5093745;28;20200;-67
2022/09/14 05:40:46;;;;;;;0.50;0.50;;;;;;;19.58;67.27;99333.91;5093567;28;20196;-67
2022/09/14 05:43:12;;;;;;;0.50;0.50;;;;;;;19.72;67.76;99340.78;5093129;28;20743;-68
2022/09/14 05:45:39;;;;;;;0.40;0.40;;;;;;;19.71;66.79;99313.94;5091192;28;20229;-67
2022/09/14 05:48:06;;;;;;;0.40;0.40;;;;;;;20.04;63.92;99333.34;5091603;28;20210;-67
2022/09/14 05:50:34;;;;;;;0.27;0.27;;;;;;;20.11;63.85;99321.59;5091747;28;20205;-68
2022/09/14 05:53:00;;;;;;;0.40;0.40;;;;;;;20.35;62.37;99340.72;5092705;28;20208;-67
2022/09/14 05:55:29;;;;;;;0.60;0.60;;;;;;;20.52;61.75;99353.34;5093096;28;20735;-67
2022/09/14 05:57:55;;;;;;;0.40;0.40;;;;;;;20.68;60.72;99343.50;5092391;28;20211;-67
2022/09/14 06:00:22;;;;;;;0.30;0.30;;;;;;;20.80;58.74;99353.03;5090821;28;20206;-67
2022/09/14 06:02:50;;;;;;;0.47;0.47;;;;;;;20.97;59.06;99353.59;5092373;28;20206;-68
2022/09/14 06:05:18;;;;;;;0.40;0.40;;;;;;;21.12;58.41;99352.47;5091039;28;20226;-67
2022/09/14 06:07:45;;;;;;;0.30;0.30;;;;;;;21.24;58.76;99362.81;5092177;28;20199;-68
2022/09/14 06:10:12;;;;;;;0.30;0.30;;;;;;;21.36;58.34;99364.50;5091296;28;20206;-67
2022/09/14 06:12:40;;;;;;;0.40;0.40;;;;;;;21.55;57.13;99366.56;5089243;28;20229;-68
2022/09/14 06:15:08;;;;;;;0.50;0.50;;;;;;;21.66;54.90;99369.19;5091778;28;20213;-70
2022/09/14 06:17:35;;;;;;;0.40;0.40;;;;;;;21.62;53.70;99351.28;5091856;28;20594;-70
2022/09/14 06:20:02;;;;;;;0.30;0.30;;;;;;;21.73;55.16;99361.75;5091960;28;20200;-71
2022/09/14 06:22:28;;;;;;;0.30;0.30;;;;;;;21.92;54.72;99370.69;5091623;28;20201;-72
2022/09/14 06:24:55;;;;;;;0.23;0.23;;;;;;;22.05;52.73;99374.94;5092176;28;20206;-72
2022/09/14 06:27:22;;;;;;;0.30;0.30;;;;;;;22.11;51.90;99377.06;5091232;28;20586;-74
2022/09/14 06:29:52;;;;;;;0.30;0.30;;;;;;;22.25;53.07;99363.78;5092261;28;20221;-69
2022/09/14 06:32:19;;;;;;;0.30;0.30;;;;;;;22.32;53.64;99380.66;5090917;28;20202;-69
2022/09/14 06:34:46;;;;;;;0.27;0.27;;;;;;;22.40;52.47;99375.63;5091659;28;20249;-69
2022/09/14 06:37:13;;;;;;;0.30;0.30;;;;;;;22.57;51.88;99377.75;5091255;28;20198;-70
2022/09/14 06:39:40;;;;;;;0.30;0.30;;;;;;;22.80;51.86;99379.38;5090914;28;20199;-70
2022/09/14 06:42:06;;;;;;;0.30;0.30;;;;;;;22.92;50.40;99377.53;5090798;28;20256;-70
2022/09/14 06:44:33;;;;;;;0.30;0.30;;;;;;;23.07;50.04;99380.72;5090750;28;20257;-70
2022/09/14 06:47:01;;;;;;;0.27;0.27;;;;;;;23.19;50.60;99384.94;5090705;28;20219;-69
2022/09/14 06:49:28;;;;;;;0.30;0.30;;;;;;;23.24;49.19;99383.59;5090577;28;20199;-69
2022/09/14 06:51:56;;;;;;;0.27;0.27;;;;;;;23.39;49.72;99381.50;5090101;28;20215;-69
2022/09/14 06:54:24;;;;;;;0.20;0.20;;;;;;;23.37;48.24;99362.47;5091085;28;20310;-69
2022/09/14 06:56:50;;;;;;;0.30;0.30;;;;;;;23.66;48.78;99376.59;5091858;28;20626;-69
2022/09/14 06:59:18;;;;;;;0.20;0.20;;;;;;;23.60;48.93;99384.13;5090800;28;20257;-69
2022/09/14 07:01:45;;;;;;;0.20;0.20;;;;;;;23.77;48.68;99387.00;5091625;28;20295;-69
2022/09/14 07:04:13;;;;;;;0.30;0.30;;;;;;;23.92;49.39;99383.06;5090780;28;21805;-69
2022/09/14 07:06:42;;;;;;;0.20;0.20;;;;;;;23.91;48.80;99389.25;5091716;28;20579;-69
2022/09/14 07:09:10;;;;;;;0.30;0.30;;;;;;;23.96;47.49;99384.47;5090324;28;20211;-69
2022/09/14 07:11:37;;;;;;;0.30;0.30;;;;;;;24.10;49.68;99382.47;5091376;28;20222;-69
2022/09/14 07:14:05;;;;;;;0.30;0.30;;;;;;;24.29;49.31;99383.41;5089494;28;20210;-70
2022/09/14 07:16:34;;;;;;;0.20;0.20;;;;;;;24.51;47.90;99387.59;5090754;28;20199;-70
2022/09/14 07:19:03;;;;;;;0.20;0.20;;;;;;;24.59;47.83;99377.25;5091047;28;20278;-70
2022/09/14 07:21:33;;;;;;;0.30;0.30;;;;;;;24.65;47.83;99381.97;5089713;28;20196;-70
2022/09/14 07:24:00;;;;;;;0.27;0.27;;;;;;;24.74;48.30;99378.53;5089461;28;20199;-70
2022/09/14 07:26:29;;;;;;;0.20;0.20;;;;;;;24.95;47.88;99376.63;5090368;28;20627;-69
2022/09/14 07:28:59;;;;;;;0.77;0.77;;;;;;;25.17;47.04;99364.22;5090466;28;20343;-70
2022/09/14 07:31:28;;;;;;;0.20;0.20;;;;;;;25.29;48.01;99370.97;5089933;28;20294;-70
2022/09/14 07:33:57;;;;;;;0.10;0.10;;;;;;;25.40;47.36;99357.69;5089919;28;20675;-67
2022/09/14 07:36:27;;;;;;;0.20;0.20;;;;;;;25.60;46.48;99361.94;5090194;28;20195;-70
2022/09/14 07:38:55;;;;;;;0.30;0.30;;;;;;;25.77;44.75;99353.34;5086982;28;20306;-70
2022/09/14 07:41:24;;;;;;;0.20;0.20;;;;;;;25.70;43.70;99339.13;5088175;28;20611;-71
2022/09/14 07:43:51;;;;;;;0.20;0.20;;;;;;;25.83;43.86;99347.50;5088484;28;20278;-70
2022/09/14 07:46:18;;;;;;;0.20;0.20;;;;;;;25.81;43.70;99328.47;5089189;28;20888;-70
2022/09/14 07:48:45;;;;;;;0.20;0.20;;;;;;;26.07;44.03;99355.69;5089192;28;20269;-70
2022/09/14 07:51:13;;;;;;;0.30;0.30;;;;;;;26.10;44.57;99344.91;5090023;28;20256;-70
2022/09/14 07:53:42;;;;;;;0.20;0.20;;;;;;;26.13;42.68;99329.81;5089559;28;20207;-70
2022/09/14 07:56:12;;;;;;;0.20;0.20;;;;;;;26.30;44.04;99342.22;5087933;28;20282;-71
2022/09/14 07:58:40;;;;;;;0.20;0.20;;;;;;;26.52;41.10;99344.44;5087424;28;20203;-70
2022/09/14 08:01:10;;;;;;;0.30;0.30;;;;;;;26.52;39.19;99349.69;5088926;28;20202;-71
2022/09/14 08:03:38;;;;;;;0.20;0.20;;;;;;;26.58;41.29;99344.66;5088567;28;20195;-71
2022/09/14 08:06:07;;;;;;;0.20;0.20;;;;;;;26.67;40.55;99342.94;5085346;28;20814;-70
2022/09/14 08:08:36;;;;;;;0.20;0.20;;;;;;;26.81;39.48;99347.72;5088383;28;20286;-71
2022/09/14 08:11:05;;;;;;;0.20;0.20;;;;;;;26.88;40.50;99340.03;5086335;28;20199;-70
2022/09/14 08:13:35;;;;;;;0.20;0.20;;;;;;;26.97;39.57;99350.50;5084795;28;20668;-71
2022/09/14 08:16:02;;;;;;;0.20;0.20;;;;;;;26.97;40.00;99350.50;5086810;28;20202;-71
2022/09/14 08:18:29;;;;;;;0.20;0.20;;;;;;;26.98;40.13;99349.50;5089893;28;20204;-70
2022/09/14 08:20:57;;;;;;;0.20;0.20;;;;;;;27.01;40.70;99346.56;5089661;28;20214;-69
2022/09/14 08:23:24;;;;;;;0.20;0.20;;;;;;;27.18;40.40;99346.69;5089634;28;20625;-71
2022/09/14 08:25:52;;;;;;;0.20;0.20;;;;;;;27.27;40.19;99353.69;5089462;28;20214;-70
2022/09/14 08:28:18;;;;;;;0.10;0.10;;;;;;;27.40;41.04;99346.22;5089265;28;20195;-71
2022/09/14 08:30:46;;;;;;;0.10;0.10;;;;;;;27.44;40.11;99344.94;5090909;28;20202;-71
2022/09/14 08:33:13;;;;;;;0.20;0.20;;;;;;;27.54;38.29;99337.75;5090311;28;20619;-71
2022/09/14 08:35:43;;;;;;;0.13;0.13;;;;;;;27.49;40.77;99334.78;5090667;28;20760;-71
2022/09/14 08:38:10;;;;;;;0.20;0.20;;;;;;;27.45;36.53;99333.44;5090066;28;20287;-71
2022/09/14 08:40:44;;;;;;;0.20;0.20;;;;;;;27.53;38.30;99333.47;5090408;28;20207;-72
2022/09/14 08:43:13;;;;;;;0.20;0.20;;;;;;;27.70;38.98;99332.59;5089394;28;20638;-71
2022/09/14 08:45:42;;;;;;;0.20;0.20;;;;;;;27.88;39.17;99335.16;5090546;28;20294;-72
2022/09/14 08:48:17;;;;;;;0.20;0.20;;;;;;;28.01;38.46;99328.44;5090115;28;20274;-71
2022/09/14 08:50:44;;;;;;;0.20;0.20;;;;;;;28.06;39.33;99326.22;5090645;28;20194;-71
2022/09/14 08:53:10;;;;;;;0.20;0.20;;;;;;;28.11;39.37;99325.75;5089754;28;20203;-72
2022/09/14 08:55:44;;;;;;;0.20;0.20;;;;;;;28.17;40.01;99321.63;5090511;28;20191;-72
2022/09/14 08:58:25;;;;;;;0.10;0.10;;;;;;;28.25;40.53;99325.13;5090151;28;20799;-72
2022/09/14 09:00:55;;;;;;;0.20;0.20;;;;;;;28.34;37.38;99315.41;5089787;28;20198;-72
2022/09/14 09:03:48;;;;;;;0.20;0.20;;;;;;;28.34;38.79;99320.69;5088918;28;20214;-72
2022/09/14 09:06:19;;;;;;;0.17;0.17;;;;;;;28.31;38.65;99318.38;5087291;28;20308;-72
2022/09/14 09:09:03;;;;;;;0.20;0.20;;;;;;;28.39;37.89;99316.59;5089934;28;20210;-72
2022/09/14 09:11:37;;;;;;;0.10;0.10;;;;;;;28.41;38.26;99306.69;5087054;28;20206;-70
2022/09/14 09:14:10;;;;;;;0.20;0.20;;;;;;;28.62;38.17;99304.44;5093804;28;20196;-72
2022/09/14 09:16:37;;;;;;;0.20;0.20;;;;;;;28.61;38.26;99304.59;5092868;28;20192;-72
2022/09/14 09:19:15;;;;;;;0.10;0.10;;;;;;;28.49;40.80;99308.53;5093284;28;20683;-72
2022/09/14 09:21:46;;;;;;;0.10;0.10;;;;;;;28.46;38.99;99303.59;5087619;28;20199;-73
2022/09/14 09:24:20;;;;;;;0.10;0.10;;;;;;;28.43;38.23;99307.38;5093973;28;20202;-72
2022/09/14 09:26:47;;;;;;;0.20;0.20;;;;;;;28.40;37.72;99302.41;5092831;28;20222;-69
2022/09/14 09:29:14;;;;;;;0.20;0.20;;;;;;;28.46;37.64;99293.03;5093875;28;20207;-70
2022/09/14 09:31:46;;;;;;;0.20;0.20;;;;;;;28.28;38.13;99279.97;5093413;28;20560;-70
2022/09/14 09:34:16;;;;;;;0.10;0.10;;;;;;;28.58;38.25;99283.81;5093863;28;20200;-71
2022/09/14 09:36:46;;;;;;;0.20;0.20;;;;;;;28.63;37.37;99278.88;5093141;28;20214;-70
2022/09/14 09:39:14;;;;;;;0.20;0.20;;;;;;;28.73;39.95;99281.38;5089631;28;20280;-70
2022/09/14 09:41:45;;;;;;;0.20;0.20;;;;;;;28.73;37.01;99268.19;5091349;28;20207;-71
2022/09/14 09:44:11;;;;;;;0.20;0.20;;;;;;;28.87;37.64;99276.28;5092225;28;20204;-70
2022/09/14 09:46:45;;;;;;;0.10;0.10;;;;;;;29.06;35.61;99286.50;5092849;28;20215;-70
2022/09/14 09:49:20;;;;;;;0.20;0.20;;;;;;;29.03;35.20;99260.44;5092836;28;20331;-69
2022/09/14 09:51:48;;;;;;;0.10;0.10;;;;;;;28.94;36.01;99272.00;5091508;28;20262;-70
2022/09/14 09:54:29;;;;;;;0.20;0.20;;;;;;;29.06;35.97;99269.81;5090471;28;20612;-70
2022/09/14 09:56:58;;;;;;;0.30;0.30;;;;;;;29.07;39.00;99256.47;5092991;28;20712;-70
2022/09/14 09:59:34;;;;;;;0.10;0.10;;;;;;;29.21;36.45;99275.25;5091503;28;20203;-70
2022/09/14 10:02:22;;;;;;;0.20;0.20;;;;;;;29.38;36.74;99274.25;5091234;28;20263;-70
2022/09/14 10:04:59;;;;;;;0.10;0.10;;;;;;;29.35;36.51;99264.03;5092378;28;20272;-70
2022/09/14 10:07:27;;;;;;;0.20;0.20;;;;;;;29.41;36.52;99263.34;5092971;28;20683;-70
2022/09/14 10:09:59;;;;;;;0.20;0.20;;;;;;;29.48;37.01;99264.31;5090074;28;20218;-71
2022/09/14 10:12:27;;;;;;;0.20;0.20;;;;;;;29.59;36.35;99269.25;5090393;28;20239;-69
2022/09/14 10:15:14;;;;;;;0.10;0.10;;;;;;;29.53;38.65;99246.16;5092377;28;20204;-70
2022/09/14 10:17:53;;;;;;;0.20;0.20;;;;;;;29.69;36.05;99261.94;5091846;28;20199;-70
2022/09/14 10:20:24;;;;;;;0.20;0.20;;;;;;;29.72;38.35;99255.50;5089106;28;20601;-72
2022/09/14 10:22:51;;;;;;;0.20;0.20;;;;;;;29.75;34.74;99261.25;5091332;28;20622;-69
2022/09/14 10:25:23;;;;;;;0.20;0.20;;;;;;;29.76;37.08;99243.59;5092519;28;20305;-69
2022/09/14 10:27:58;;;;;;;0.10;0.10;;;;;;;29.52;35.02;99255.91;5088446;28;20732;-70
2022/09/14 10:30:28;;;;;;;0.10;0.10;;;;;;;29.51;34.96;99253.41;5091761;28;20226;-70
2022/09/14 10:33:01;;;;;;;0.20;0.20;;;;;;;29.57;35.53;99258.00;5088649;28;20199;-70
2022/09/14 10:35:38;;;;;;;0.20;0.20;;;;;;;29.68;38.45;99244.44;5091752;28;20204;-71
2022/09/14 10:38:23;;;;;;;0.10;0.10;;;;;;;29.81;35.88;99255.28;5091688;28;20199;-70
2022/09/14 10:41:09;;;;;;;0.20;0.20;;;;;;;29.81;36.02;99247.34;5091691;28;20222;-70
2022/09/14 10:43:51;;;;;;;0.13;0.13;;;;;;;29.72;35.31;99229.91;5091080;28;20218;-70
2022/09/14 10:46:23;;;;;;;0.20;0.20;;;;;;;29.85;38.20;99239.94;5090987;28;20203;-68
2022/09/14 10:49:03;;;;;;;0.20;0.20;;;;;;;29.83;36.16;99232.16;5091527;28;20200;-69
2022/09/14 10:51:44;;;;;;;0.20;0.20;;;;;;;29.90;35.71;99232.31;5091934;28;20200;-69
2022/09/14 10:54:25;;;;;;;0.20;0.20;;;;;;;29.89;37.32;99220.09;5091951;28;20195;-70
2022/09/14 10:57:06;;;;;;;0.20;0.20;;;;;;;29.80;34.54;99224.56;5087159;28;20294;-71
2022/09/14 10:59:43;;;;;;;0.10;0.10;;;;;;;29.47;35.12;99226.50;5089467;28;20214;-72
2022/09/14 11:02:31;;;;;;;0.10;0.10;;;;;;;29.47;35.99;99215.13;5088736;28;20561;-74
2022/09/14 11:05:10;;;;;;;0.10;0.10;;;;;;;29.61;35.45;99206.47;5086810;28;20214;-71
2022/09/14 11:07:49;;;;;;;0.10;0.10;;;;;;;29.82;38.04;99208.53;5090420;28;20284;-72
2022/09/14 11:10:21;;;;;;;1.55;1.55;;;;;;;29.97;37.10;99205.00;5089606;28;20743;-72
2022/09/14 11:13:04;;;;;;;0.20;0.20;;;;;;;30.07;35.31;99208.25;5089361;28;20231;-71
2022/09/14 11:15:41;;;;;;;0.20;0.20;;;;;;;30.17;36.00;99198.28;5082059;28;20211;-72
2022/09/14 11:18:20;;;;;;;0.20;0.20;;;;;;;30.22;38.69;99200.38;5089354;28;20203;-71
2022/09/14 11:21:00;;;;;;;0.20;0.20;;;;;;;30.30;35.29;99194.22;5089529;28;20207;-72
2022/09/14 11:23:44;;;;;;;0.10;0.10;;;;;;;30.35;34.97;99197.16;5090080;28;20211;-71
2022/09/14 11:26:18;;;;;;;0.20;0.20;;;;;;;30.37;35.35;99192.53;5090612;28;20734;-72
2022/09/14 11:28:49;;;;;;;0.10;0.10;;;;;;;30.39;34.74;99190.50;5090743;28;20602;-72
2022/09/14 11:31:21;;;;;;;0.13;0.13;;;;;;;30.38;35.52;99173.81;5089559;28;20261;-72
2022/09/14 11:33:54;;;;;;;0.30;0.30;;;;;;;30.33;34.00;99184.13;5082233;28;20705;-72
2022/09/14 11:36:25;;;;;;;0.20;0.20;;;;;;;30.37;36.53;99171.34;5087780;28;20207;-72
2022/09/14 11:38:59;;;;;;;0.20;0.20;;;;;;;30.48;36.56;99178.88;5089991;28;20647;-72
2022/09/14 11:41:36;;;;;;;0.20;0.20;;;;;;;30.49;33.61;99176.06;5088225;28;20574;-73
2022/09/14 11:44:07;;;;;;;0.20;0.20;;;;;;;30.47;34.10;99166.69;5086293;28;20671;-72
2022/09/14 11:46:38;;;;;;;0.20;0.20;;;;;;;30.44;33.92;99145.84;5090844;28;20195;-72
2022/09/14 11:49:17;;;;;;;0.10;0.10;;;;;;;30.41;33.84;99159.44;5093311;28;20227;-73